createdAt,value
2018-01-21T00:00:34.912Z,28
2018-01-21T00:01:38.172Z,28
2018-01-21T00:02:38.264Z,28
2018-01-21T00:03:35.514Z,28
2018-01-21T00:04:35.245Z,28
2018-01-21T00:05:35.265Z,27.9
2018-01-21T00:06:38.543Z,27.9
2018-01-21T00:07:35.674Z,28
2018-01-21T00:08:38.634Z,28
2018-01-21T00:09:35.499Z,28
2018-01-21T00:10:38.504Z,28
2018-01-21T00:11:35.956Z,28
2018-01-21T00:12:38.910Z,28
2018-01-21T00:13:38.666Z,27.9
2018-01-21T00:14:38.985Z,28
2018-01-21T00:15:39.005Z,28
2018-01-21T00:16:39.026Z,28
2018-01-21T00:17:35.933Z,28
2018-01-21T00:18:39.161Z,28
2018-01-21T00:19:35.973Z,27.9
2018-01-21T00:20:36.005Z,27.9
2018-01-21T00:21:39.279Z,28
2018-01-21T00:22:36.160Z,28
2018-01-21T00:23:36.164Z,28
2018-01-21T00:24:36.189Z,28
2018-01-21T00:25:39.489Z,27.9
2018-01-21T00:26:36.386Z,27.9
2018-01-21T00:27:39.369Z,28
2018-01-21T00:28:36.882Z,28
2018-01-21T00:29:36.561Z,28
2018-01-21T00:30:36.648Z,28
2018-01-21T00:31:36.640Z,28
2018-01-21T00:32:36.724Z,28
2018-01-21T00:33:36.627Z,28
2018-01-21T00:34:37.024Z,27.9
2018-01-21T00:35:36.760Z,28
2018-01-21T00:36:36.836Z,27.9
2018-01-21T00:37:40.123Z,27.9
2018-01-21T00:38:39.796Z,27.9
2018-01-21T00:39:40.166Z,27.9
2018-01-21T00:40:37.041Z,28
2018-01-21T00:41:40.348Z,28
2018-01-21T00:42:37.197Z,28
2018-01-21T00:43:40.495Z,28
2018-01-21T00:44:37.303Z,28
2018-01-21T00:45:37.627Z,27.9
2018-01-21T00:46:37.607Z,27.9
2018-01-21T00:47:37.812Z,28
2018-01-21T00:48:37.511Z,28
2018-01-21T00:49:40.509Z,28
2018-01-21T00:50:37.994Z,28
2018-01-21T00:51:38.026Z,28
2018-01-21T00:52:38.018Z,28
2018-01-21T00:53:40.953Z,28
2018-01-21T00:54:40.995Z,28
2018-01-21T00:55:41.045Z,28
2018-01-21T00:56:37.922Z,28
2018-01-21T00:57:38.276Z,28
2018-01-21T00:58:38.051Z,28
2018-01-21T00:59:38.127Z,28
2018-01-21T01:00:41.329Z,27.9
2018-01-21T01:01:38.146Z,28
2018-01-21T01:02:41.383Z,27.9
2018-01-21T01:03:41.148Z,27.9
2018-01-21T01:04:38.320Z,27.9
2018-01-21T01:05:41.612Z,27.9
2018-01-21T01:06:41.716Z,27.9
2018-01-21T01:07:41.771Z,27.9
2018-01-21T01:08:41.829Z,27.9
2018-01-21T01:09:41.939Z,27.9
2018-01-21T01:10:38.981Z,27.9
2018-01-21T01:11:38.809Z,27.9
2018-01-21T01:12:41.666Z,27.9
2018-01-21T01:13:39.184Z,27.9
2018-01-21T01:14:39.212Z,27.9
2018-01-21T01:15:39.288Z,27.9
2018-01-21T01:16:39.116Z,27.9
2018-01-21T01:17:39.431Z,27.9
2018-01-21T01:18:39.474Z,27.9
2018-01-21T01:19:42.394Z,27.9
2018-01-21T01:20:39.664Z,28
2018-01-21T01:21:39.437Z,27.9
2018-01-21T01:22:42.762Z,27.9
2018-01-21T01:23:39.507Z,27.9
2018-01-21T01:24:39.514Z,27.9
2018-01-21T01:25:39.558Z,27.9
2018-01-21T01:26:39.971Z,27.9
2018-01-21T01:27:39.751Z,27.9
2018-01-21T01:28:39.830Z,27.9
2018-01-21T01:29:40.226Z,27.9
2018-01-21T01:30:39.933Z,27.9
2018-01-21T01:31:39.879Z,27.9
2018-01-21T01:32:43.164Z,27.9
2018-01-21T01:33:43.219Z,27.9
2018-01-21T01:34:43.232Z,27.9
2018-01-21T01:35:43.894Z,27.9
2018-01-21T01:36:43.292Z,27.9
2018-01-21T01:37:40.146Z,27.9
2018-01-21T01:38:40.139Z,27.9
2018-01-21T01:39:43.073Z,27.9
2018-01-21T01:40:40.238Z,27.9
2018-01-21T01:41:43.483Z,27.9
2018-01-21T01:42:40.566Z,27.9
2018-01-21T01:43:40.408Z,27.9
2018-01-21T01:44:40.737Z,28
2018-01-21T01:45:40.809Z,27.9
2018-01-21T01:46:43.750Z,27.9
2018-01-21T01:47:40.868Z,27.9
2018-01-21T01:48:40.540Z,27.9
2018-01-21T01:49:40.587Z,27.9
2018-01-21T01:50:40.564Z,27.9
2018-01-21T01:51:40.908Z,27.9
2018-01-21T01:52:40.710Z,27.9
2018-01-21T01:53:43.904Z,27.9
2018-01-21T01:54:41.082Z,27.9
2018-01-21T01:55:43.626Z,27.9
2018-01-21T01:56:44.069Z,27.9
2018-01-21T01:57:40.887Z,27.8
2018-01-21T01:58:40.859Z,27.9
2018-01-21T01:59:44.906Z,27.9
2018-01-21T02:00:41.007Z,27.9
2018-01-21T02:01:43.903Z,27.9
2018-01-21T02:02:44.233Z,27.9
2018-01-21T02:03:41.113Z,27.9
2018-01-21T02:04:41.109Z,27.9
2018-01-21T02:05:44.021Z,27.9
2018-01-21T02:06:44.460Z,27.8
2018-01-21T02:07:41.211Z,27.8
2018-01-21T02:08:44.486Z,27.9
2018-01-21T02:09:41.337Z,27.9
2018-01-21T02:10:44.548Z,27.9
2018-01-21T02:11:41.141Z,27.9
2018-01-21T02:12:41.222Z,27.9
2018-01-21T02:13:44.084Z,27.9
2018-01-21T02:14:41.294Z,27.9
2018-01-21T02:15:41.348Z,27.9
2018-01-21T02:16:41.354Z,27.9
2018-01-21T02:17:41.423Z,27.9
2018-01-21T02:18:41.467Z,27.9
2018-01-21T02:19:41.465Z,27.9
2018-01-21T02:20:41.585Z,27.9
2018-01-21T02:21:45.129Z,27.9
2018-01-21T02:22:41.629Z,27.9
2018-01-21T02:23:41.714Z,27.8
2018-01-21T02:24:41.767Z,27.9
2018-01-21T02:25:41.921Z,27.9
2018-01-21T02:26:41.873Z,27.9
2018-01-21T02:27:44.695Z,27.9
2018-01-21T02:28:41.797Z,27.9
2018-01-21T02:29:41.850Z,27.9
2018-01-21T02:30:41.875Z,27.9
2018-01-21T02:31:44.759Z,27.9
2018-01-21T02:32:41.947Z,27.9
2018-01-21T02:33:44.792Z,27.9
2018-01-21T02:34:42.020Z,27.9
2018-01-21T02:35:42.098Z,27.9
2018-01-21T02:36:42.277Z,27.9
2018-01-21T02:37:42.766Z,27.9
2018-01-21T02:38:45.598Z,27.9
2018-01-21T02:39:42.477Z,27.9
2018-01-21T02:40:42.545Z,27.9
2018-01-21T02:41:42.583Z,27.9
2018-01-21T02:42:42.617Z,27.9
2018-01-21T02:43:42.992Z,27.9
2018-01-21T02:44:46.097Z,27.8
2018-01-21T02:45:42.742Z,27.9
2018-01-21T02:46:46.020Z,27.9
2018-01-21T02:47:43.233Z,27.9
2018-01-21T02:48:45.786Z,27.9
2018-01-21T02:49:46.134Z,27.9
2018-01-21T02:50:44.064Z,27.9
2018-01-21T02:51:43.394Z,27.9
2018-01-21T02:52:43.167Z,27.9
2018-01-21T02:53:43.154Z,27.9
2018-01-21T02:54:43.583Z,27.9
2018-01-21T02:55:46.557Z,27.9
2018-01-21T02:56:46.327Z,27.9
2018-01-21T02:57:46.700Z,27.9
2018-01-21T02:58:43.927Z,27.9
2018-01-21T02:59:43.695Z,27.8
2018-01-21T03:00:47.126Z,27.9
2018-01-21T03:01:46.929Z,27.8
2018-01-21T03:02:43.828Z,27.8
2018-01-21T03:03:44.133Z,27.8
2018-01-21T03:04:47.544Z,27.8
2018-01-21T03:05:47.061Z,27.8
2018-01-21T03:06:43.897Z,27.8
2018-01-21T03:07:44.242Z,27.8
2018-01-21T03:08:47.197Z,27.9
2018-01-21T03:09:47.203Z,27.9
2018-01-21T03:10:46.943Z,27.8
2018-01-21T03:11:47.344Z,27.9
2018-01-21T03:12:44.187Z,27.8
2018-01-21T03:13:47.051Z,27.9
2018-01-21T03:14:47.083Z,27.9
2018-01-21T03:15:47.148Z,27.9
2018-01-21T03:16:47.485Z,27.9
2018-01-21T03:17:44.718Z,27.9
2018-01-21T03:18:44.412Z,27.9
2018-01-21T03:19:44.463Z,27.9
2018-01-21T03:20:44.523Z,27.8
2018-01-21T03:21:44.572Z,27.9
2018-01-21T03:22:48.159Z,27.9
2018-01-21T03:23:48.604Z,27.9
2018-01-21T03:24:47.950Z,27.8
2018-01-21T03:25:48.006Z,27.8
2018-01-21T03:26:47.971Z,27.8
2018-01-21T03:27:45.730Z,27.8
2018-01-21T03:28:48.057Z,27.8
2018-01-21T03:29:48.112Z,27.8
2018-01-21T03:30:44.906Z,27.8
2018-01-21T03:31:45.348Z,27.8
2018-01-21T03:32:45.059Z,27.8
2018-01-21T03:33:48.341Z,27.9
2018-01-21T03:34:45.169Z,27.9
2018-01-21T03:35:48.344Z,27.9
2018-01-21T03:36:45.247Z,27.9
2018-01-21T03:37:45.574Z,27.9
2018-01-21T03:38:46.092Z,27.9
2018-01-21T03:39:48.250Z,27.9
2018-01-21T03:40:49.916Z,27.9
2018-01-21T03:41:45.551Z,27.9
2018-01-21T03:42:48.475Z,27.9
2018-01-21T03:43:46.114Z,27.9
2018-01-21T03:44:48.446Z,27.8
2018-01-21T03:45:46.295Z,27.9
2018-01-21T03:46:48.515Z,27.9
2018-01-21T03:47:46.229Z,27.9
2018-01-21T03:48:45.790Z,27.8
2018-01-21T03:49:49.061Z,27.8
2018-01-21T03:50:46.550Z,27.9
2018-01-21T03:51:48.737Z,27.8
2018-01-21T03:52:45.952Z,27.8
2018-01-21T03:53:45.937Z,27.9
2018-01-21T03:54:45.964Z,27.9
2018-01-21T03:55:46.361Z,27.8
2018-01-21T03:56:46.149Z,27.8
2018-01-21T03:57:46.254Z,27.8
2018-01-21T03:58:49.258Z,27.8
2018-01-21T03:59:46.669Z,27.8
2018-01-21T04:00:46.466Z,27.8
2018-01-21T04:01:49.732Z,27.8
2018-01-21T04:02:46.848Z,27.9
2018-01-21T04:03:46.989Z,27.8
2018-01-21T04:04:46.743Z,27.8
2018-01-21T04:05:47.145Z,27.8
2018-01-21T04:06:50.125Z,27.8
2018-01-21T04:07:50.110Z,27.8
2018-01-21T04:08:47.210Z,27.8
2018-01-21T04:09:46.943Z,27.8
2018-01-21T04:10:50.238Z,27.8
2018-01-21T04:11:47.372Z,27.8
2018-01-21T04:12:47.448Z,27.8
2018-01-21T04:13:50.108Z,27.8
2018-01-21T04:14:50.162Z,27.8
2018-01-21T04:15:47.633Z,27.8
2018-01-21T04:16:47.412Z,27.8
2018-01-21T04:17:47.728Z,27.8
2018-01-21T04:18:50.690Z,27.8
2018-01-21T04:19:50.762Z,27.8
2018-01-21T04:20:47.557Z,27.8
2018-01-21T04:21:50.788Z,27.8
2018-01-21T04:22:47.665Z,27.8
2018-01-21T04:23:47.782Z,27.8
2018-01-21T04:24:50.617Z,27.8
2018-01-21T04:25:47.786Z,27.8
2018-01-21T04:26:50.997Z,27.8
2018-01-21T04:27:50.769Z,27.8
2018-01-21T04:28:47.952Z,27.8
2018-01-21T04:29:51.195Z,27.8
2018-01-21T04:30:48.053Z,27.8
2018-01-21T04:31:48.082Z,27.8
2018-01-21T04:32:48.157Z,27.8
2018-01-21T04:33:48.545Z,27.8
2018-01-21T04:34:48.333Z,27.8
2018-01-21T04:35:48.679Z,27.8
2018-01-21T04:36:48.742Z,27.7
2018-01-21T04:37:48.463Z,27.8
2018-01-21T04:38:48.477Z,27.8
2018-01-21T04:39:48.578Z,27.8
2018-01-21T04:40:51.474Z,27.7
2018-01-21T04:41:49.014Z,27.8
2018-01-21T04:42:49.033Z,27.8
2018-01-21T04:43:51.950Z,27.8
2018-01-21T04:44:49.312Z,27.8
2018-01-21T04:45:52.039Z,27.8
2018-01-21T04:46:52.366Z,27.8
2018-01-21T04:47:49.779Z,27.8
2018-01-21T04:48:49.634Z,27.8
2018-01-21T04:49:52.185Z,27.9
2018-01-21T04:50:52.240Z,27.9
2018-01-21T04:51:49.077Z,27.9
2018-01-21T04:52:49.096Z,27.8
2018-01-21T04:53:49.534Z,27.8
2018-01-21T04:54:49.575Z,27.8
2018-01-21T04:55:49.260Z,27.8
2018-01-21T04:56:49.358Z,27.8
2018-01-21T04:57:52.298Z,27.8
2018-01-21T04:58:49.514Z,27.8
2018-01-21T04:59:49.507Z,27.8
2018-01-21T05:00:52.758Z,27.7
2018-01-21T05:01:49.938Z,27.8
2018-01-21T05:02:52.901Z,27.8
2018-01-21T05:03:50.035Z,27.8
2018-01-21T05:04:49.759Z,27.8
2018-01-21T05:05:53.035Z,27.7
2018-01-21T05:06:50.152Z,27.8
2018-01-21T05:07:50.258Z,27.8
2018-01-21T05:08:50.329Z,27.8
2018-01-21T05:09:50.031Z,27.8
2018-01-21T05:10:50.008Z,27.8
2018-01-21T05:11:53.255Z,27.7
2018-01-21T05:12:53.379Z,27.7
2018-01-21T05:13:50.541Z,27.8
2018-01-21T05:14:50.249Z,27.8
2018-01-21T05:15:50.654Z,27.8
2018-01-21T05:16:50.653Z,27.8
2018-01-21T05:17:53.663Z,27.8
2018-01-21T05:18:50.397Z,27.8
2018-01-21T05:19:50.504Z,27.8
2018-01-21T05:20:50.614Z,27.8
2018-01-21T05:21:50.619Z,27.8
2018-01-21T05:22:50.978Z,27.8
2018-01-21T05:23:51.073Z,27.8
2018-01-21T05:24:54.004Z,27.8
2018-01-21T05:25:50.844Z,27.7
2018-01-21T05:26:50.875Z,27.8
2018-01-21T05:27:50.929Z,27.8
2018-01-21T05:28:54.149Z,27.8
2018-01-21T05:29:54.126Z,27.8
2018-01-21T05:30:51.044Z,27.8
2018-01-21T05:31:54.276Z,27.8
2018-01-21T05:32:53.989Z,27.8
2018-01-21T05:33:51.493Z,27.8
2018-01-21T05:34:51.212Z,27.8
2018-01-21T05:35:51.307Z,27.8
2018-01-21T05:36:51.332Z,27.7
2018-01-21T05:37:54.614Z,27.8
2018-01-21T05:38:51.525Z,27.8
2018-01-21T05:39:54.723Z,27.8
2018-01-21T05:40:51.515Z,27.8
2018-01-21T05:41:51.555Z,27.8
2018-01-21T05:42:51.607Z,27.8
2018-01-21T05:43:54.537Z,27.8
2018-01-21T05:44:54.922Z,27.8
2018-01-21T05:45:51.783Z,27.8
2018-01-21T05:46:51.858Z,27.8
2018-01-21T05:47:51.903Z,27.8
2018-01-21T05:48:52.281Z,27.8
2018-01-21T05:49:52.028Z,27.8
2018-01-21T05:50:52.099Z,27.8
2018-01-21T05:51:52.211Z,27.8
2018-01-21T05:52:55.152Z,27.7
2018-01-21T05:53:52.231Z,27.8
2018-01-21T05:54:55.558Z,27.8
2018-01-21T05:55:52.615Z,27.8
2018-01-21T05:56:52.642Z,27.8
2018-01-21T05:57:55.286Z,27.8
2018-01-21T05:58:55.674Z,27.8
2018-01-21T05:59:55.714Z,27.8
2018-01-21T06:00:52.583Z,27.8
2018-01-21T06:01:52.948Z,27.8
2018-01-21T06:02:55.813Z,27.8
2018-01-21T06:03:53.059Z,27.8
2018-01-21T06:04:52.793Z,27.8
2018-01-21T06:05:53.086Z,27.8
2018-01-21T06:06:53.165Z,27.8
2018-01-21T06:07:52.926Z,27.8
2018-01-21T06:08:52.905Z,27.8
2018-01-21T06:09:53.009Z,27.8
2018-01-21T06:10:53.276Z,27.8
2018-01-21T06:11:53.070Z,27.8
2018-01-21T06:12:53.457Z,27.8
2018-01-21T06:13:53.184Z,27.8
2018-01-21T06:14:56.431Z,27.8
2018-01-21T06:15:53.339Z,27.8
2018-01-21T06:16:56.585Z,27.8
2018-01-21T06:17:53.436Z,27.7
2018-01-21T06:18:53.799Z,27.8
2018-01-21T06:19:56.367Z,27.8
2018-01-21T06:20:53.540Z,27.8
2018-01-21T06:21:53.583Z,27.8
2018-01-21T06:22:56.782Z,27.8
2018-01-21T06:23:53.644Z,27.7
2018-01-21T06:24:54.019Z,27.7
2018-01-21T06:25:54.029Z,27.7
2018-01-21T06:26:53.752Z,27.7
2018-01-21T06:27:53.909Z,27.7
2018-01-21T06:28:54.246Z,27.8
2018-01-21T06:29:54.025Z,27.7
2018-01-21T06:30:54.362Z,27.8
2018-01-21T06:31:56.964Z,27.8
2018-01-21T06:32:57.314Z,27.8
2018-01-21T06:33:57.418Z,27.8
2018-01-21T06:34:54.643Z,27.8
2018-01-21T06:35:54.724Z,27.8
2018-01-21T06:36:54.515Z,27.7
2018-01-21T06:37:57.390Z,27.7
2018-01-21T06:38:54.658Z,27.7
2018-01-21T06:39:54.764Z,27.7
2018-01-21T06:40:55.108Z,27.7
2018-01-21T06:41:55.809Z,27.7
2018-01-21T06:42:57.730Z,27.7
2018-01-21T06:43:54.934Z,27.7
2018-01-21T06:44:54.984Z,27.7
2018-01-21T06:45:58.475Z,27.7
2018-01-21T06:46:55.070Z,27.7
2018-01-21T06:47:55.189Z,27.7
2018-01-21T06:48:58.066Z,27.7
2018-01-21T06:49:55.217Z,27.7
2018-01-21T06:50:58.167Z,27.8
2018-01-21T06:51:55.337Z,27.8
2018-01-21T06:52:55.337Z,27.8
2018-01-21T06:53:55.405Z,27.8
2018-01-21T06:54:58.598Z,27.8
2018-01-21T06:55:58.688Z,27.7
2018-01-21T06:56:55.858Z,27.8
2018-01-21T06:57:58.734Z,27.7
2018-01-21T06:58:55.568Z,27.8
2018-01-21T06:59:55.670Z,27.7
2018-01-21T07:00:58.798Z,27.7
2018-01-21T07:01:58.920Z,27.7
2018-01-21T07:02:59.006Z,27.7
2018-01-21T07:03:55.816Z,27.7
2018-01-21T07:04:58.818Z,27.7
2018-01-21T07:05:59.071Z,27.7
2018-01-21T07:06:55.907Z,27.7
2018-01-21T07:07:56.052Z,27.7
2018-01-21T07:08:56.132Z,27.7
2018-01-21T07:09:56.396Z,27.7
2018-01-21T07:10:59.281Z,27.7
2018-01-21T07:11:56.111Z,27.7
2018-01-21T07:12:59.029Z,27.7
2018-01-21T07:13:56.519Z,27.7
2018-01-21T07:14:59.121Z,27.7
2018-01-21T07:15:56.304Z,27.7
2018-01-21T07:16:56.657Z,27.8
2018-01-21T07:17:56.677Z,27.8
2018-01-21T07:18:56.779Z,27.8
2018-01-21T07:19:56.862Z,27.7
2018-01-21T07:20:59.806Z,27.7
2018-01-21T07:21:56.998Z,27.8
2018-01-21T07:22:56.702Z,27.7
2018-01-21T07:23:59.868Z,27.7
2018-01-21T07:24:56.693Z,27.7
2018-01-21T07:25:59.593Z,27.8
2018-01-21T07:26:56.791Z,27.8
2018-01-21T07:27:57.058Z,27.8
2018-01-21T07:28:56.799Z,27.8
2018-01-21T07:29:56.914Z,27.8
2018-01-21T07:30:59.809Z,27.8
2018-01-21T07:31:57.045Z,27.8
2018-01-21T07:33:00.220Z,27.8
2018-01-21T07:33:57.095Z,27.8
2018-01-21T07:34:57.177Z,27.8
2018-01-21T07:35:57.526Z,27.8
2018-01-21T07:37:00.496Z,27.8
2018-01-21T07:37:57.441Z,27.7
2018-01-21T07:39:00.660Z,27.8
2018-01-21T07:40:00.384Z,27.7
2018-01-21T07:41:00.765Z,27.7
2018-01-21T07:41:57.907Z,27.7
2018-01-21T07:43:01.326Z,27.7
2018-01-21T07:43:57.933Z,27.7
2018-01-21T07:44:57.950Z,27.7
2018-01-21T07:46:00.520Z,27.7
2018-01-21T07:46:57.641Z,27.7
2018-01-21T07:48:00.906Z,27.7
2018-01-21T07:49:01.760Z,27.7
2018-01-21T07:49:57.819Z,27.7
2018-01-21T07:50:57.871Z,27.7
2018-01-21T07:52:01.139Z,27.7
2018-01-21T07:53:01.223Z,27.7
2018-01-21T07:53:58.397Z,27.7
2018-01-21T07:54:58.175Z,27.8
2018-01-21T07:55:58.198Z,27.7
2018-01-21T07:56:58.530Z,27.7
2018-01-21T07:57:58.563Z,27.7
2018-01-21T07:58:58.326Z,27.7
2018-01-21T07:59:58.280Z,27.7
2018-01-21T08:01:02.653Z,27.7
2018-01-21T08:01:58.321Z,27.7
2018-01-21T08:02:58.764Z,27.7
2018-01-21T08:03:58.486Z,27.7
2018-01-21T08:05:01.478Z,27.7
2018-01-21T08:06:01.799Z,27.7
2018-01-21T08:06:58.957Z,27.7
2018-01-21T08:08:01.956Z,27.7
2018-01-21T08:08:59.406Z,27.8
2018-01-21T08:09:59.213Z,27.7
2018-01-21T08:11:02.098Z,27.8
2018-01-21T08:12:01.846Z,27.7
2018-01-21T08:12:59.020Z,27.7
2018-01-21T08:13:59.035Z,27.8
2018-01-21T08:14:59.078Z,27.8
2018-01-21T08:15:59.116Z,27.8
2018-01-21T08:17:02.761Z,27.8
2018-01-21T08:17:59.236Z,27.8
2018-01-21T08:18:59.583Z,27.8
2018-01-21T08:20:02.601Z,27.8
2018-01-21T08:20:59.340Z,27.8
2018-01-21T08:21:59.416Z,27.8
2018-01-21T08:22:59.403Z,27.8
2018-01-21T08:24:02.683Z,27.8
2018-01-21T08:25:02.427Z,27.8
2018-01-21T08:25:59.936Z,27.8
2018-01-21T08:26:59.591Z,27.8
2018-01-21T08:28:02.841Z,27.8
2018-01-21T08:28:59.957Z,27.7
2018-01-21T08:30:02.579Z,27.8
2018-01-21T08:31:00.104Z,27.8
2018-01-21T08:32:03.041Z,27.7
2018-01-21T08:32:59.908Z,27.8
2018-01-21T08:34:03.163Z,27.8
2018-01-21T08:35:03.230Z,27.8
2018-01-21T08:36:03.302Z,27.8
2018-01-21T08:37:00.442Z,27.8
2018-01-21T08:38:00.215Z,27.8
2018-01-21T08:39:00.612Z,27.9
2018-01-21T08:40:04.820Z,27.8
2018-01-21T08:41:03.304Z,27.8
2018-01-21T08:42:03.405Z,27.9
2018-01-21T08:43:00.875Z,27.9
2018-01-21T08:44:03.767Z,27.9
2018-01-21T08:45:00.917Z,27.9
2018-01-21T08:46:03.799Z,27.9
2018-01-21T08:47:03.829Z,27.9
2018-01-21T08:48:03.947Z,27.9
2018-01-21T08:49:03.993Z,28
2018-01-21T08:50:04.094Z,27.9
2018-01-21T08:51:01.233Z,28
2018-01-21T08:52:04.760Z,28.1
2018-01-21T08:53:01.328Z,28.2
2018-01-21T08:54:04.273Z,28.3
2018-01-21T08:55:04.305Z,28.4
2018-01-21T08:56:04.331Z,28.4
2018-01-21T08:57:01.534Z,28.5
2018-01-21T08:58:01.672Z,28.5
2018-01-21T08:59:04.201Z,28.6
2018-01-21T09:00:04.320Z,28.6
2018-01-21T09:01:01.399Z,28.6
2018-01-21T09:02:01.445Z,28.7
2018-01-21T09:03:01.429Z,28.6
2018-01-21T09:04:04.395Z,28.6
2018-01-21T09:05:04.461Z,28.6
2018-01-21T09:06:01.636Z,28.6
2018-01-21T09:07:01.968Z,28.6
2018-01-21T09:08:01.820Z,28.6
2018-01-21T09:09:02.222Z,28.6
2018-01-21T09:10:05.101Z,28.5
2018-01-21T09:11:05.080Z,28.5
2018-01-21T09:12:01.925Z,28.5
2018-01-21T09:13:04.898Z,28.5
2018-01-21T09:14:02.026Z,28.4
2018-01-21T09:15:02.453Z,28.4
2018-01-21T09:16:02.498Z,28.4
2018-01-21T09:17:02.606Z,28.4
2018-01-21T09:18:05.456Z,28.4
2018-01-21T09:19:02.378Z,28.4
2018-01-21T09:20:02.435Z,28.3
2018-01-21T09:21:05.666Z,28.3
2018-01-21T09:22:02.482Z,28.3
2018-01-21T09:23:02.499Z,28.3
2018-01-21T09:24:05.721Z,28.3
2018-01-21T09:25:02.597Z,28.3
2018-01-21T09:26:03.520Z,28.3
2018-01-21T09:27:05.558Z,28.3
2018-01-21T09:28:05.982Z,28.3
2018-01-21T09:29:06.575Z,28.3
2018-01-21T09:30:05.752Z,28.3
2018-01-21T09:31:02.972Z,28.3
2018-01-21T09:32:03.515Z,28.2
2018-01-21T09:33:02.954Z,28.2
2018-01-21T09:34:05.886Z,28.2
2018-01-21T09:35:06.346Z,28.2
2018-01-21T09:36:06.380Z,28.2
2018-01-21T09:37:04.068Z,28.2
2018-01-21T09:38:03.199Z,28.2
2018-01-21T09:39:06.542Z,28.2
2018-01-21T09:40:06.562Z,28.2
2018-01-21T09:41:06.594Z,28.2
2018-01-21T09:42:05.021Z,28.2
2018-01-21T09:43:03.519Z,28.2
2018-01-21T09:44:03.943Z,28.2
2018-01-21T09:45:06.525Z,28.2
2018-01-21T09:46:03.778Z,28.2
2018-01-21T09:47:07.009Z,28.2
2018-01-21T09:48:04.755Z,28.2
2018-01-21T09:49:07.774Z,28.3
2018-01-21T09:50:07.204Z,28.3
2018-01-21T09:51:04.176Z,28.3
2018-01-21T09:52:07.288Z,28.3
2018-01-21T09:53:07.430Z,28.3
2018-01-21T09:54:05.239Z,28.2
2018-01-21T09:55:04.309Z,28.2
2018-01-21T09:56:04.761Z,28.2
2018-01-21T09:57:07.640Z,28.2
2018-01-21T09:58:04.726Z,28.2
2018-01-21T09:59:04.429Z,28.2
2018-01-21T10:00:04.802Z,28.3
2018-01-21T10:01:04.556Z,28.3
2018-01-21T10:02:04.825Z,28.3
2018-01-21T10:03:07.783Z,28.3
2018-01-21T10:04:04.627Z,28.3
2018-01-21T10:05:05.076Z,28.2
2018-01-21T10:06:05.091Z,28.2
2018-01-21T10:07:04.837Z,28.2
2018-01-21T10:08:08.167Z,28.2
2018-01-21T10:09:05.393Z,28.2
2018-01-21T10:10:08.254Z,28.3
2018-01-21T10:11:05.485Z,28.3
2018-01-21T10:12:08.145Z,28.2
2018-01-21T10:13:08.491Z,28.3
2018-01-21T10:14:05.670Z,28.3
2018-01-21T10:15:05.675Z,28.2
2018-01-21T10:16:05.693Z,28.2
2018-01-21T10:17:08.352Z,28.2
2018-01-21T10:18:05.399Z,28.2
2018-01-21T10:19:08.601Z,28.2
2018-01-21T10:20:13.038Z,28.2
2018-01-21T10:21:05.556Z,28.2
2018-01-21T10:22:05.603Z,28.2
2018-01-21T10:23:05.575Z,28.3
2018-01-21T10:24:08.548Z,28.3
2018-01-21T10:25:05.727Z,28.4
2018-01-21T10:26:08.622Z,28.4
2018-01-21T10:27:09.010Z,28.5
2018-01-21T10:28:06.177Z,28.5
2018-01-21T10:29:06.277Z,28.5
2018-01-21T10:30:06.315Z,28.5
2018-01-21T10:31:06.421Z,28.6
2018-01-21T10:32:09.300Z,28.6
2018-01-21T10:33:06.128Z,28.6
2018-01-21T10:34:06.486Z,28.7
2018-01-21T10:35:09.072Z,28.7
2018-01-21T10:36:06.252Z,28.6
2018-01-21T10:37:06.200Z,28.6
2018-01-21T10:38:06.562Z,28.5
2018-01-21T10:39:09.481Z,28.6
2018-01-21T10:40:10.222Z,28.5
2018-01-21T10:41:06.317Z,28.5
2018-01-21T10:42:09.252Z,28.5
2018-01-21T10:43:06.461Z,28.5
2018-01-21T10:44:06.836Z,28.5
2018-01-21T10:45:09.783Z,28.5
2018-01-21T10:46:06.611Z,28.5
2018-01-21T10:47:06.624Z,28.5
2018-01-21T10:48:06.731Z,28.5
2018-01-21T10:49:07.066Z,28.4
2018-01-21T10:50:09.980Z,28.5
2018-01-21T10:51:06.810Z,28.5
2018-01-21T10:52:10.011Z,28.6
2018-01-21T10:53:07.153Z,28.6
2018-01-21T10:54:09.779Z,28.5
2018-01-21T10:55:10.245Z,28.6
2018-01-21T10:56:06.984Z,28.5
2018-01-21T10:57:10.295Z,28.6
2018-01-21T10:58:07.423Z,28.6
2018-01-21T10:59:07.293Z,28.5
2018-01-21T11:00:10.085Z,28.5
2018-01-21T11:01:07.531Z,28.5
2018-01-21T11:02:10.406Z,28.5
2018-01-21T11:03:10.416Z,28.5
2018-01-21T11:04:07.279Z,28.5
2018-01-21T11:05:07.376Z,28.5
2018-01-21T11:06:07.748Z,28.5
2018-01-21T11:07:07.427Z,28.6
2018-01-21T11:08:07.467Z,28.6
2018-01-21T11:09:07.815Z,28.6
2018-01-21T11:10:07.535Z,28.6
2018-01-21T11:11:10.804Z,28.6
2018-01-21T11:12:10.786Z,28.6
2018-01-21T11:13:10.932Z,28.6
2018-01-21T11:14:10.945Z,28.7
2018-01-21T11:15:11.062Z,28.7
2018-01-21T11:16:08.221Z,28.6
2018-01-21T11:17:11.117Z,28.7
2018-01-21T11:18:08.072Z,28.7
2018-01-21T11:19:08.155Z,28.7
2018-01-21T11:20:08.168Z,28.7
2018-01-21T11:21:08.143Z,28.7
2018-01-21T11:22:11.425Z,28.7
2018-01-21T11:23:08.348Z,28.7
2018-01-21T11:24:11.575Z,28.6
2018-01-21T11:25:11.565Z,28.7
2018-01-21T11:26:08.396Z,28.7
2018-01-21T11:27:11.715Z,28.7
2018-01-21T11:28:08.538Z,28.7
2018-01-21T11:29:11.441Z,28.7
2018-01-21T11:30:08.940Z,28.6
2018-01-21T11:31:08.970Z,28.7
2018-01-21T11:32:08.727Z,28.7
2018-01-21T11:33:09.048Z,28.7
2018-01-21T11:34:08.927Z,28.7
2018-01-21T11:35:12.079Z,28.7
2018-01-21T11:36:09.334Z,28.7
2018-01-21T11:37:12.238Z,28.7
2018-01-21T11:38:09.073Z,28.7
2018-01-21T11:39:09.121Z,28.8
2018-01-21T11:40:12.431Z,28.9
2018-01-21T11:41:12.196Z,29
2018-01-21T11:42:09.702Z,29
2018-01-21T11:43:09.483Z,29.1
2018-01-21T11:44:09.872Z,29.2
2018-01-21T11:45:12.537Z,29.1
2018-01-21T11:46:12.917Z,29.2
2018-01-21T11:47:10.824Z,29.1
2018-01-21T11:48:09.748Z,29
2018-01-21T11:49:09.816Z,29
2018-01-21T11:50:13.078Z,29
2018-01-21T11:51:09.870Z,28.9
2018-01-21T11:52:10.279Z,28.9
2018-01-21T11:53:10.300Z,28.9
2018-01-21T11:54:10.008Z,28.9
2018-01-21T11:55:13.313Z,28.9
2018-01-21T11:56:13.312Z,29
2018-01-21T11:57:10.491Z,29
2018-01-21T11:58:13.452Z,29.1
2018-01-21T11:59:10.653Z,29.3
2018-01-21T12:00:10.398Z,29.4
2018-01-21T12:01:10.760Z,29.5
2018-01-21T12:02:13.424Z,29.5
2018-01-21T12:03:10.896Z,29.5
2018-01-21T12:04:10.636Z,29.5
2018-01-21T12:05:13.490Z,29.5
2018-01-21T12:06:13.842Z,29.5
2018-01-21T12:07:10.619Z,29.6
2018-01-21T12:08:11.023Z,29.7
2018-01-21T12:09:11.034Z,29.8
2018-01-21T12:10:10.762Z,29.8
2018-01-21T12:11:11.143Z,29.8
2018-01-21T12:12:10.864Z,29.8
2018-01-21T12:13:11.004Z,29.8
2018-01-21T12:14:11.351Z,29.8
2018-01-21T12:15:11.408Z,29.7
2018-01-21T12:16:14.286Z,29.6
2018-01-21T12:17:11.445Z,29.5
2018-01-21T12:18:11.516Z,29.4
2018-01-21T12:19:11.293Z,29.3
2018-01-21T12:20:14.474Z,29.3
2018-01-21T12:21:11.695Z,29.2
2018-01-21T12:22:11.497Z,29.2
2018-01-21T12:23:14.691Z,29.1
2018-01-21T12:24:14.414Z,29.1
2018-01-21T12:25:11.580Z,29
2018-01-21T12:26:11.883Z,29
2018-01-21T12:27:14.516Z,29
2018-01-21T12:28:14.834Z,29
2018-01-21T12:29:11.614Z,28.9
2018-01-21T12:30:14.909Z,28.9
2018-01-21T12:31:14.915Z,28.9
2018-01-21T12:32:14.601Z,28.9
2018-01-21T12:33:15.026Z,29
2018-01-21T12:34:11.777Z,29
2018-01-21T12:35:15.074Z,29.1
2018-01-21T12:36:15.134Z,29.2
2018-01-21T12:37:15.200Z,29.3
2018-01-21T12:38:11.972Z,29.5
2018-01-21T12:39:11.997Z,30.2
2018-01-21T12:40:12.411Z,30.6
2018-01-21T12:41:15.326Z,30.8
2018-01-21T12:42:12.161Z,31.4
2018-01-21T12:43:12.242Z,31.9
2018-01-21T12:44:15.499Z,32.3
2018-01-21T12:45:15.293Z,32.2
2018-01-21T12:46:15.920Z,32.1
2018-01-21T12:47:12.472Z,31.9
2018-01-21T12:48:12.833Z,31.7
2018-01-21T12:49:15.740Z,31.4
2018-01-21T12:50:15.409Z,31.2
2018-01-21T12:51:12.893Z,31
2018-01-21T12:52:12.591Z,30.9
2018-01-21T12:53:12.668Z,30.8
2018-01-21T12:54:16.490Z,30.6
2018-01-21T12:55:12.816Z,30.6
2018-01-21T12:56:13.194Z,30.5
2018-01-21T12:57:13.152Z,30.4
2018-01-21T12:58:12.971Z,30.3
2018-01-21T12:59:13.203Z,30.2
2018-01-21T13:00:13.218Z,30.2
2018-01-21T13:01:13.003Z,30.1
2018-01-21T13:02:13.328Z,30
2018-01-21T13:03:13.428Z,30
2018-01-21T13:04:13.515Z,29.9
2018-01-21T13:05:13.523Z,29.8
2018-01-21T13:06:13.223Z,29.8
2018-01-21T13:07:13.275Z,29.7
2018-01-21T13:08:13.375Z,29.6
2018-01-21T13:09:13.412Z,29.6
2018-01-21T13:10:13.505Z,29.5
2018-01-21T13:11:13.571Z,29.5
2018-01-21T13:12:13.922Z,29.5
2018-01-21T13:13:16.805Z,29.4
2018-01-21T13:14:14.032Z,29.4
2018-01-21T13:15:13.785Z,29.3
2018-01-21T13:16:14.179Z,29.3
2018-01-21T13:17:17.185Z,29.1
2018-01-21T13:18:14.009Z,29.2
2018-01-21T13:19:14.007Z,29.1
2018-01-21T13:20:14.385Z,29.1
2018-01-21T13:21:16.946Z,29.1
2018-01-21T13:22:14.445Z,29
2018-01-21T13:23:17.336Z,29
2018-01-21T13:24:17.392Z,29